sensor_id;sensor_type;location;lat;lon;timestamp;pressure;altitude;pressure_sealevel;temperature;humidity
51460;BME280;37534;39.772;2.718;2022-07-06T00:01:50;101231.22;;;26.94;92.28
51460;BME280;37534;39.772;2.718;2022-07-06T00:04:17;101221.06;;;26.99;93.68
51460;BME280;37534;39.772;2.718;2022-07-06T00:06:43;101217.97;;;26.94;93.46
51460;BME280;37534;39.772;2.718;2022-07-06T00:09:08;101203.34;;;26.90;93.16
51460;BME280;37534;39.772;2.718;2022-07-06T00:11:34;101174.91;;;26.92;90.38
51460;BME280;37534;39.772;2.718;2022-07-06T00:14:00;101149.44;;;27.10;76.77
51460;BME280;37534;39.772;2.718;2022-07-06T00:16:26;101160.78;;;27.71;68.34
51460;BME280;37534;39.772;2.718;2022-07-06T00:18:51;101137.53;;;28.22;56.70
51460;BME280;37534;39.772;2.718;2022-07-06T00:21:17;101122.75;;;29.02;48.45
51460;BME280;37534;39.772;2.718;2022-07-06T00:23:43;101138.13;;;29.27;64.14
51460;BME280;37534;39.772;2.718;2022-07-06T00:26:09;101184.59;;;28.95;70.16
51460;BME280;37534;39.772;2.718;2022-07-06T00:28:35;101199.75;;;28.85;71.03
51460;BME280;37534;39.772;2.718;2022-07-06T00:31:00;101229.91;;;28.93;62.81
51460;BME280;37534;39.772;2.718;2022-07-06T00:33:26;101250.53;;;28.72;71.47
51460;BME280;37534;39.772;2.718;2022-07-06T00:35:51;101245.00;;;28.55;75.99
51460;BME280;37534;39.772;2.718;2022-07-06T00:38:17;101268.34;;;28.42;74.16
51460;BME280;37534;39.772;2.718;2022-07-06T00:40:42;101276.88;;;28.26;75.67
51460;BME280;37534;39.772;2.718;2022-07-06T00:43:08;101291.41;;;28.12;78.98
51460;BME280;37534;39.772;2.718;2022-07-06T00:45:34;101301.91;;;28.04;81.60
51460;BME280;37534;39.772;2.718;2022-07-06T00:47:59;101309.53;;;27.87;81.48
51460;BME280;37534;39.772;2.718;2022-07-06T00:50:25;101304.38;;;27.86;77.07
51460;BME280;37534;39.772;2.718;2022-07-06T00:53:02;101310.50;;;27.86;77.91
51460;BME280;37534;39.772;2.718;2022-07-06T00:55:32;101327.38;;;27.85;80.60
51460;BME280;37534;39.772;2.718;2022-07-06T00:58:01;101348.94;;;28.02;79.66
51460;BME280;37534;39.772;2.718;2022-07-06T01:00:28;101360.38;;;28.02;79.01
51460;BME280;37534;39.772;2.718;2022-07-06T01:02:54;101326.56;;;27.85;82.38
51460;BME280;37534;39.772;2.718;2022-07-06T01:05:20;101325.44;;;27.78;81.77
51460;BME280;37534;39.772;2.718;2022-07-06T01:07:48;101328.38;;;27.84;80.97
51460;BME280;37534;39.772;2.718;2022-07-06T01:10:16;101327.44;;;27.95;77.66
51460;BME280;37534;39.772;2.718;2022-07-06T01:12:43;101313.69;;;27.80;79.48
51460;BME280;37534;39.772;2.718;2022-07-06T01:15:12;101301.56;;;27.78;80.96
51460;BME280;37534;39.772;2.718;2022-07-06T01:17:39;101254.28;;;27.83;77.29
51460;BME280;37534;39.772;2.718;2022-07-06T01:20:19;101227.63;;;28.04;77.40
51460;BME280;37534;39.772;2.718;2022-07-06T01:22:46;101190.91;;;28.09;76.81
51460;BME280;37534;39.772;2.718;2022-07-06T01:25:12;101165.38;;;28.08;75.29
51460;BME280;37534;39.772;2.718;2022-07-06T01:27:39;101151.69;;;28.03;77.75
51460;BME280;37534;39.772;2.718;2022-07-06T01:30:07;101144.00;;;28.00;72.19
51460;BME280;37534;39.772;2.718;2022-07-06T01:32:34;101140.97;;;27.95;72.72
51460;BME280;37534;39.772;2.718;2022-07-06T01:35:00;101126.03;;;27.94;70.30
51460;BME280;37534;39.772;2.718;2022-07-06T01:37:26;101115.44;;;27.94;66.04
51460;BME280;37534;39.772;2.718;2022-07-06T01:39:51;101133.66;;;28.06;64.50
51460;BME280;37534;39.772;2.718;2022-07-06T01:42:17;101154.56;;;28.19;59.84
51460;BME280;37534;39.772;2.718;2022-07-06T01:44:44;101191.97;;;28.26;61.59
51460;BME280;37534;39.772;2.718;2022-07-06T01:47:10;101270.72;;;28.35;70.13
51460;BME280;37534;39.772;2.718;2022-07-06T01:49:36;101322.94;;;28.35;80.06
51460;BME280;37534;39.772;2.718;2022-07-06T01:52:02;101372.97;;;28.39;85.44
51460;BME280;37534;39.772;2.718;2022-07-06T01:54:28;101397.81;;;28.29;85.21
51460;BME280;37534;39.772;2.718;2022-07-06T01:56:53;101426.84;;;28.20;86.27
51460;BME280;37534;39.772;2.718;2022-07-06T01:59:19;101479.03;;;28.00;88.17
51460;BME280;37534;39.772;2.718;2022-07-06T02:01:44;101522.31;;;27.80;89.03
51460;BME280;37534;39.772;2.718;2022-07-06T02:04:10;101573.69;;;27.58;94.16
51460;BME280;37534;39.772;2.718;2022-07-06T02:06:35;101579.34;;;27.43;98.75
51460;BME280;37534;39.772;2.718;2022-07-06T02:09:01;101602.84;;;27.37;100.00
51460;BME280;37534;39.772;2.718;2022-07-06T02:11:27;101630.09;;;27.27;100.00
51460;BME280;37534;39.772;2.718;2022-07-06T02:13:53;101661.28;;;27.24;100.00
51460;BME280;37534;39.772;2.718;2022-07-06T02:16:19;101657.69;;;27.13;100.00
51460;BME280;37534;39.772;2.718;2022-07-06T02:18:44;101657.34;;;27.18;99.22
51460;BME280;37534;39.772;2.718;2022-07-06T02:21:10;101662.94;;;27.25;97.92
51460;BME280;37534;39.772;2.718;2022-07-06T02:23:35;101644.53;;;27.23;98.52
51460;BME280;37534;39.772;2.718;2022-07-06T02:26:01;101656.69;;;27.26;100.00
51460;BME280;37534;39.772;2.718;2022-07-06T02:28:26;101638.16;;;27.26;98.94
51460;BME280;37534;39.772;2.718;2022-07-06T02:30:52;101634.97;;;27.43;100.00
51460;BME280;37534;39.772;2.718;2022-07-06T02:33:17;101604.19;;;27.20;100.00
51460;BME280;37534;39.772;2.718;2022-07-06T02:35:43;101592.56;;;27.11;100.00
51460;BME280;37534;39.772;2.718;2022-07-06T02:38:09;101576.34;;;27.04;100.00
51460;BME280;37534;39.772;2.718;2022-07-06T02:40:35;101557.09;;;27.02;100.00
51460;BME280;37534;39.772;2.718;2022-07-06T02:43:01;101539.69;;;26.88;100.00
51460;BME280;37534;39.772;2.718;2022-07-06T02:45:26;101534.06;;;26.82;100.00
51460;BME280;37534;39.772;2.718;2022-07-06T02:47:52;101554.13;;;26.96;100.00
51460;BME280;37534;39.772;2.718;2022-07-06T02:50:20;101537.75;;;26.90;100.00
51460;BME280;37534;39.772;2.718;2022-07-06T02:52:46;101526.06;;;26.93;100.00
51460;BME280;37534;39.772;2.718;2022-07-06T02:55:11;101521.03;;;26.90;100.00
51460;BME280;37534;39.772;2.718;2022-07-06T02:57:37;101505.66;;;26.84;100.00
51460;BME280;37534;39.772;2.718;2022-07-06T03:00:03;101499.19;;;26.77;100.00
51460;BME280;37534;39.772;2.718;2022-07-06T03:02:29;101504.56;;;26.86;100.00
51460;BME280;37534;39.772;2.718;2022-07-06T03:04:55;101522.13;;;26.87;100.00
51460;BME280;37534;39.772;2.718;2022-07-06T03:07:22;101516.25;;;26.84;100.00
51460;BME280;37534;39.772;2.718;2022-07-06T03:09:47;101516.25;;;26.84;100.00
51460;BME280;37534;39.772;2.718;2022-07-06T03:12:13;101553.31;;;26.84;100.00
51460;BME280;37534;39.772;2.718;2022-07-06T03:14:38;101573.78;;;26.82;100.00
51460;BME280;37534;39.772;2.718;2022-07-06T03:17:04;101577.47;;;26.90;100.00
51460;BME280;37534;39.772;2.718;2022-07-06T03:19:29;101598.78;;;26.89;100.00
51460;BME280;37534;39.772;2.718;2022-07-06T03:21:55;101662.84;;;26.71;100.00
51460;BME280;37534;39.772;2.718;2022-07-06T03:24:20;101714.69;;;26.74;100.00
51460;BME280;37534;39.772;2.718;2022-07-06T03:26:46;101734.31;;;26.83;100.00
51460;BME280;37534;39.772;2.718;2022-07-06T03:29:11;101732.03;;;26.67;100.00
51460;BME280;37534;39.772;2.718;2022-07-06T03:31:37;101763.63;;;26.57;100.00
51460;BME280;37534;39.772;2.718;2022-07-06T03:34:02;101807.66;;;26.58;100.00
51460;BME280;37534;39.772;2.718;2022-07-06T03:36:28;101801.38;;;26.59;100.00
51460;BME280;37534;39.772;2.718;2022-07-06T03:38:53;101786.94;;;26.52;100.00
51460;BME280;37534;39.772;2.718;2022-07-06T03:41:19;101781.16;;;26.47;100.00
51460;BME280;37534;39.772;2.718;2022-07-06T03:43:44;101794.16;;;26.50;100.00
51460;BME280;37534;39.772;2.718;2022-07-06T03:46:10;101790.56;;;26.51;100.00
51460;BME280;37534;39.772;2.718;2022-07-06T03:48:35;101802.81;;;26.52;100.00
51460;BME280;37534;39.772;2.718;2022-07-06T03:51:01;101778.03;;;26.42;100.00
51460;BME280;37534;39.772;2.718;2022-07-06T03:53:26;101798.25;;;26.43;100.00
51460;BME280;37534;39.772;2.718;2022-07-06T03:55:52;101798.72;;;26.36;100.00
51460;BME280;37534;39.772;2.718;2022-07-06T03:58:36;101793.44;;;26.36;100.00
51460;BME280;37534;39.772;2.718;2022-07-06T04:01:02;101794.38;;;26.35;100.00
51460;BME280;37534;39.772;2.718;2022-07-06T04:03:28;101780.53;;;26.32;100.00
51460;BME280;37534;39.772;2.718;2022-07-06T04:05:53;101766.59;;;26.30;100.00
51460;BME280;37534;39.772;2.718;2022-07-06T04:08:19;101755.19;;;26.29;100.00
51460;BME280;37534;39.772;2.718;2022-07-06T04:10:45;101751.72;;;26.40;100.00
51460;BME280;37534;39.772;2.718;2022-07-06T04:13:11;101738.81;;;26.35;100.00
51460;BME280;37534;39.772;2.718;2022-07-06T04:15:36;101726.19;;;26.28;100.00
51460;BME280;37534;39.772;2.718;2022-07-06T04:18:03;101725.69;;;26.23;100.00
51460;BME280;37534;39.772;2.718;2022-07-06T04:20:28;101721.25;;;26.34;100.00
51460;BME280;37534;39.772;2.718;2022-07-06T04:22:54;101725.59;;;26.35;100.00
51460;BME280;37534;39.772;2.718;2022-07-06T04:25:20;101707.06;;;26.35;100.00
51460;BME280;37534;39.772;2.718;2022-07-06T04:27:45;101678.47;;;26.41;100.00
51460;BME280;37534;39.772;2.718;2022-07-06T04:30:11;101655.97;;;26.46;100.00
51460;BME280;37534;39.772;2.718;2022-07-06T04:32:37;101643.34;;;26.39;100.00
51460;BME280;37534;39.772;2.718;2022-07-06T04:35:04;101623.50;;;26.22;100.00
51460;BME280;37534;39.772;2.718;2022-07-06T04:37:31;101627.47;;;26.39;100.00
51460;BME280;37534;39.772;2.718;2022-07-06T04:39:56;101642.72;;;26.46;100.00
51460;BME280;37534;39.772;2.718;2022-07-06T04:42:22;101659.44;;;26.35;100.00
51460;BME280;37534;39.772;2.718;2022-07-06T04:44:47;101674.13;;;26.28;100.00
51460;BME280;37534;39.772;2.718;2022-07-06T04:47:13;101672.69;;;26.24;100.00
51460;BME280;37534;39.772;2.718;2022-07-06T04:49:39;101665.47;;;26.26;100.00
51460;BME280;37534;39.772;2.718;2022-07-06T04:52:05;101658.00;;;26.43;100.00
51460;BME280;37534;39.772;2.718;2022-07-06T04:54:31;101649.34;;;26.41;100.00
51460;BME280;37534;39.772;2.718;2022-07-06T04:56:57;101644.78;;;26.43;100.00
51460;BME280;37534;39.772;2.718;2022-07-06T04:59:23;101633.00;;;26.35;100.00
51460;BME280;37534;39.772;2.718;2022-07-06T05:01:48;101632.50;;;26.42;100.00
51460;BME280;37534;39.772;2.718;2022-07-06T05:04:14;101632.75;;;26.39;100.00
51460;BME280;37534;39.772;2.718;2022-07-06T05:06:40;101615.94;;;26.28;100.00
51460;BME280;37534;39.772;2.718;2022-07-06T05:09:06;101596.94;;;26.23;100.00
51460;BME280;37534;39.772;2.718;2022-07-06T05:11:31;101584.41;;;26.25;100.00
51460;BME280;37534;39.772;2.718;2022-07-06T05:13:57;101566.13;;;26.22;100.00
51460;BME280;37534;39.772;2.718;2022-07-06T05:16:22;101568.53;;;26.25;100.00
51460;BME280;37534;39.772;2.718;2022-07-06T05:18:48;101560.38;;;26.28;100.00
51460;BME280;37534;39.772;2.718;2022-07-06T05:21:14;101554.72;;;26.33;100.00
51460;BME280;37534;39.772;2.718;2022-07-06T05:23:39;101544.75;;;26.36;100.00
51460;BME280;37534;39.772;2.718;2022-07-06T05:26:05;101546.78;;;26.44;100.00
51460;BME280;37534;39.772;2.718;2022-07-06T05:28:31;101538.72;;;26.46;100.00
51460;BME280;37534;39.772;2.718;2022-07-06T05:30:56;101516.78;;;26.55;100.00
51460;BME280;37534;39.772;2.718;2022-07-06T05:33:22;101524.59;;;26.56;100.00
51460;BME280;37534;39.772;2.718;2022-07-06T05:35:47;101512.47;;;26.65;100.00
51460;BME280;37534;39.772;2.718;2022-07-06T05:38:13;101497.75;;;26.72;100.00
51460;BME280;37534;39.772;2.718;2022-07-06T05:40:39;101495.66;;;26.87;100.00
51460;BME280;37534;39.772;2.718;2022-07-06T05:43:04;101487.63;;;26.78;100.00
51460;BME280;37534;39.772;2.718;2022-07-06T05:45:30;101491.84;;;26.80;100.00
51460;BME280;37534;39.772;2.718;2022-07-06T05:47:55;101498.28;;;26.87;100.00
51460;BME280;37534;39.772;2.718;2022-07-06T05:50:40;101490.34;;;26.87;100.00
51460;BME280;37534;39.772;2.718;2022-07-06T05:53:06;101494.50;;;27.01;100.00
51460;BME280;37534;39.772;2.718;2022-07-06T05:55:32;101500.25;;;27.06;100.00
51460;BME280;37534;39.772;2.718;2022-07-06T05:57:58;101507.81;;;27.11;100.00
51460;BME280;37534;39.772;2.718;2022-07-06T06:00:25;101502.34;;;27.24;100.00
51460;BME280;37534;39.772;2.718;2022-07-06T06:02:52;101492.06;;;27.30;100.00
51460;BME280;37534;39.772;2.718;2022-07-06T06:05:18;101488.09;;;27.36;100.00
51460;BME280;37534;39.772;2.718;2022-07-06T06:07:44;101488.13;;;27.46;100.00
51460;BME280;37534;39.772;2.718;2022-07-06T06:10:15;101490.84;;;27.56;100.00
51460;BME280;37534;39.772;2.718;2022-07-06T06:12:41;101472.41;;;27.54;100.00
51460;BME280;37534;39.772;2.718;2022-07-06T06:15:08;101470.00;;;27.51;97.54
51460;BME280;37534;39.772;2.718;2022-07-06T06:17:35;101475.19;;;27.53;96.90
51460;BME280;37534;39.772;2.718;2022-07-06T06:20:01;101467.63;;;27.48;97.51
51460;BME280;37534;39.772;2.718;2022-07-06T06:22:27;101467.25;;;27.53;98.70
51460;BME280;37534;39.772;2.718;2022-07-06T06:24:52;101465.91;;;27.68;95.58
51460;BME280;37534;39.772;2.718;2022-07-06T06:27:18;101466.63;;;27.70;88.77
51460;BME280;37534;39.772;2.718;2022-07-06T06:29:44;101461.03;;;27.73;80.76
51460;BME280;37534;39.772;2.718;2022-07-06T06:32:11;101468.00;;;27.64;81.43
51460;BME280;37534;39.772;2.718;2022-07-06T06:34:38;101462.97;;;27.71;76.03
51460;BME280;37534;39.772;2.718;2022-07-06T06:37:04;101444.16;;;27.64;76.29
51460;BME280;37534;39.772;2.718;2022-07-06T06:39:29;101442.09;;;27.78;75.28
51460;BME280;37534;39.772;2.718;2022-07-06T06:41:55;101441.41;;;27.85;73.99
51460;BME280;37534;39.772;2.718;2022-07-06T06:44:21;101449.69;;;27.92;77.04
51460;BME280;37534;39.772;2.718;2022-07-06T06:46:49;101461.47;;;28.09;77.83
51460;BME280;37534;39.772;2.718;2022-07-06T06:49:15;101464.13;;;28.19;78.20
51460;BME280;37534;39.772;2.718;2022-07-06T06:51:40;101463.47;;;28.27;78.88
51460;BME280;37534;39.772;2.718;2022-07-06T06:54:06;101463.59;;;28.35;75.35
51460;BME280;37534;39.772;2.718;2022-07-06T06:56:31;101469.91;;;28.53;74.60
51460;BME280;37534;39.772;2.718;2022-07-06T06:58:57;101464.47;;;28.55;67.60
51460;BME280;37534;39.772;2.718;2022-07-06T07:01:23;101482.22;;;28.74;62.81
51460;BME280;37534;39.772;2.718;2022-07-06T07:03:50;101478.59;;;28.75;64.22
51460;BME280;37534;39.772;2.718;2022-07-06T07:06:16;101477.75;;;28.74;62.86
51460;BME280;37534;39.772;2.718;2022-07-06T07:08:41;101466.31;;;28.84;61.56
51460;BME280;37534;39.772;2.718;2022-07-06T07:11:07;101475.25;;;28.92;62.23
51460;BME280;37534;39.772;2.718;2022-07-06T07:13:32;101494.78;;;29.11;60.84
51460;BME280;37534;39.772;2.718;2022-07-06T07:15:58;101490.59;;;29.18;66.63
51460;BME280;37534;39.772;2.718;2022-07-06T07:18:24;101490.56;;;29.28;67.36
51460;BME280;37534;39.772;2.718;2022-07-06T07:20:49;101500.78;;;29.32;67.52
51460;BME280;37534;39.772;2.718;2022-07-06T07:23:15;101490.31;;;29.21;67.29
51460;BME280;37534;39.772;2.718;2022-07-06T07:25:40;101478.72;;;28.83;68.02
51460;BME280;37534;39.772;2.718;2022-07-06T07:28:06;101483.59;;;28.97;66.77
51460;BME280;37534;39.772;2.718;2022-07-06T07:30:31;101470.72;;;29.02;67.13
51460;BME280;37534;39.772;2.718;2022-07-06T07:32:57;101473.81;;;29.08;66.14
51460;BME280;37534;39.772;2.718;2022-07-06T07:35:25;101458.13;;;29.14;65.16
51460;BME280;37534;39.772;2.718;2022-07-06T07:37:51;101451.16;;;29.23;66.24
51460;BME280;37534;39.772;2.718;2022-07-06T07:40:17;101457.84;;;29.37;66.50
51460;BME280;37534;39.772;2.718;2022-07-06T07:42:42;101455.59;;;29.42;63.28
51460;BME280;37534;39.772;2.718;2022-07-06T07:45:09;101452.75;;;29.44;62.16
51460;BME280;37534;39.772;2.718;2022-07-06T07:47:34;101459.50;;;29.38;60.19
51460;BME280;37534;39.772;2.718;2022-07-06T07:50:00;101472.97;;;29.27;63.25
51460;BME280;37534;39.772;2.718;2022-07-06T07:52:25;101475.91;;;29.14;64.21
51460;BME280;37534;39.772;2.718;2022-07-06T07:54:51;101478.84;;;29.11;63.81
51460;BME280;37534;39.772;2.718;2022-07-06T07:57:17;101478.28;;;29.07;67.73
51460;BME280;37534;39.772;2.718;2022-07-06T07:59:43;101473.81;;;29.08;72.02
51460;BME280;37534;39.772;2.718;2022-07-06T08:02:08;101469.34;;;28.98;66.75
51460;BME280;37534;39.772;2.718;2022-07-06T08:04:34;101484.03;;;28.93;68.95
51460;BME280;37534;39.772;2.718;2022-07-06T08:07:00;101480.97;;;28.78;71.02
51460;BME280;37534;39.772;2.718;2022-07-06T08:09:26;101504.59;;;28.81;74.74
51460;BME280;37534;39.772;2.718;2022-07-06T08:11:51;101508.63;;;28.95;71.77
51460;BME280;37534;39.772;2.718;2022-07-06T08:14:17;101498.84;;;29.15;72.85
51460;BME280;37534;39.772;2.718;2022-07-06T08:16:43;101495.75;;;29.10;72.57
51460;BME280;37534;39.772;2.718;2022-07-06T08:19:09;101498.97;;;29.13;71.49
51460;BME280;37534;39.772;2.718;2022-07-06T08:21:35;101495.09;;;29.17;70.86
51460;BME280;37534;39.772;2.718;2022-07-06T08:24:01;101510.00;;;29.38;69.87
51460;BME280;37534;39.772;2.718;2022-07-06T08:26:27;101515.78;;;29.71;69.16
51460;BME280;37534;39.772;2.718;2022-07-06T08:28:53;101515.13;;;29.97;63.63
51460;BME280;37534;39.772;2.718;2022-07-06T08:31:19;101503.06;;;30.02;59.25
51460;BME280;37534;39.772;2.718;2022-07-06T08:33:45;101505.59;;;30.22;58.17
51460;BME280;37534;39.772;2.718;2022-07-06T08:36:11;101512.75;;;30.49;53.22
51460;BME280;37534;39.772;2.718;2022-07-06T08:38:36;101512.50;;;30.78;54.56
51460;BME280;37534;39.772;2.718;2022-07-06T08:41:02;101502.00;;;30.95;55.03
51460;BME280;37534;39.772;2.718;2022-07-06T08:43:32;101515.22;;;31.22;52.67
51460;BME280;37534;39.772;2.718;2022-07-06T08:45:58;101528.03;;;31.45;51.27
51460;BME280;37534;39.772;2.718;2022-07-06T08:48:24;101540.00;;;31.59;52.01
51460;BME280;37534;39.772;2.718;2022-07-06T08:50:50;101551.22;;;31.71;52.06
51460;BME280;37534;39.772;2.718;2022-07-06T08:53:17;101561.44;;;31.83;51.54
51460;BME280;37534;39.772;2.718;2022-07-06T08:55:42;101573.34;;;31.97;52.00
51460;BME280;37534;39.772;2.718;2022-07-06T08:58:08;101569.28;;;32.11;51.28
51460;BME280;37534;39.772;2.718;2022-07-06T09:00:34;101581.50;;;32.22;51.37
51460;BME280;37534;39.772;2.718;2022-07-06T09:03:00;101580.41;;;32.07;50.87
51460;BME280;37534;39.772;2.718;2022-07-06T09:05:27;101559.69;;;32.00;50.90
51460;BME280;37534;39.772;2.718;2022-07-06T09:07:53;101564.03;;;32.01;49.76
51460;BME280;37534;39.772;2.718;2022-07-06T09:10:21;101573.28;;;32.07;47.80
51460;BME280;37534;39.772;2.718;2022-07-06T09:12:47;101564.84;;;32.28;46.00
51460;BME280;37534;39.772;2.718;2022-07-06T09:15:13;101577.09;;;32.55;44.53
51460;BME280;37534;39.772;2.718;2022-07-06T09:17:40;101580.59;;;32.48;43.37
51460;BME280;37534;39.772;2.718;2022-07-06T09:20:11;101580.13;;;32.61;43.18
51460;BME280;37534;39.772;2.718;2022-07-06T09:22:37;101573.94;;;32.60;43.29
51460;BME280;37534;39.772;2.718;2022-07-06T09:25:08;101571.97;;;32.70;45.65
51460;BME280;37534;39.772;2.718;2022-07-06T09:27:38;101568.13;;;33.06;42.22
51460;BME280;37534;39.772;2.718;2022-07-06T09:30:04;101564.31;;;33.17;42.16
51460;BME280;37534;39.772;2.718;2022-07-06T09:32:31;101565.34;;;33.15;41.73
51460;BME280;37534;39.772;2.718;2022-07-06T09:34:56;101549.78;;;32.94;43.62
51460;BME280;37534;39.772;2.718;2022-07-06T09:37:22;101554.59;;;32.99;43.20
51460;BME280;37534;39.772;2.718;2022-07-06T09:39:51;101549.75;;;33.11;42.22
51460;BME280;37534;39.772;2.718;2022-07-06T09:42:24;101552.28;;;33.37;41.95
51460;BME280;37534;39.772;2.718;2022-07-06T09:44:50;101568.25;;;33.78;40.98
51460;BME280;37534;39.772;2.718;2022-07-06T09:47:15;101579.13;;;33.68;42.71
51460;BME280;37534;39.772;2.718;2022-07-06T09:49:41;101607.38;;;33.63;44.04
51460;BME280;37534;39.772;2.718;2022-07-06T09:52:09;101634.34;;;33.37;44.58
51460;BME280;37534;39.772;2.718;2022-07-06T09:54:35;101624.09;;;32.91;45.72
51460;BME280;37534;39.772;2.718;2022-07-06T09:57:02;101579.28;;;32.60;47.10
51460;BME280;37534;39.772;2.718;2022-07-06T09:59:29;101519.56;;;32.18;48.03
51460;BME280;37534;39.772;2.718;2022-07-06T10:01:59;101508.94;;;31.92;56.63
51460;BME280;37534;39.772;2.718;2022-07-06T10:04:26;101538.91;;;31.78;60.12
51460;BME280;37534;39.772;2.718;2022-07-06T10:06:52;101561.50;;;31.65;60.13
51460;BME280;37534;39.772;2.718;2022-07-06T10:09:20;101559.88;;;31.46;67.41
51460;BME280;37534;39.772;2.718;2022-07-06T10:14:24;101590.66;;;31.59;64.93
51460;BME280;37534;39.772;2.718;2022-07-06T10:16:50;101596.63;;;31.79;65.23
51460;BME280;37534;39.772;2.718;2022-07-06T10:19:17;101614.81;;;32.10;60.32
51460;BME280;37534;39.772;2.718;2022-07-06T10:21:44;101643.25;;;32.27;58.18
51460;BME280;37534;39.772;2.718;2022-07-06T10:24:10;101642.22;;;32.20;56.79
51460;BME280;37534;39.772;2.718;2022-07-06T10:26:38;101638.38;;;32.14;47.69
51460;BME280;37534;39.772;2.718;2022-07-06T10:29:05;101632.78;;;32.34;47.53
51460;BME280;37534;39.772;2.718;2022-07-06T10:31:32;101610.19;;;32.20;47.97
51460;BME280;37534;39.772;2.718;2022-07-06T10:34:00;101591.53;;;32.28;48.76
51460;BME280;37534;39.772;2.718;2022-07-06T10:36:27;101569.06;;;32.05;46.54
51460;BME280;37534;39.772;2.718;2022-07-06T10:38:53;101542.13;;;31.55;45.76
51460;BME280;37534;39.772;2.718;2022-07-06T10:41:31;101514.91;;;31.25;46.53
51460;BME280;37534;39.772;2.718;2022-07-06T10:43:57;101510.50;;;31.42;45.83
51460;BME280;37534;39.772;2.718;2022-07-06T10:46:27;101504.00;;;31.63;43.27
51460;BME280;37534;39.772;2.718;2022-07-06T10:48:54;101477.84;;;31.75;42.63
51460;BME280;37534;39.772;2.718;2022-07-06T10:51:23;101476.91;;;31.84;41.17
51460;BME280;37534;39.772;2.718;2022-07-06T10:53:56;101476.13;;;32.00;40.29
51460;BME280;37534;39.772;2.718;2022-07-06T10:56:39;101467.63;;;31.62;40.30
51460;BME280;37534;39.772;2.718;2022-07-06T11:02:12;101498.47;;;31.99;39.70
51460;BME280;37534;39.772;2.718;2022-07-06T11:04:45;101487.94;;;31.97;39.93
51460;BME280;37534;39.772;2.718;2022-07-06T11:07:16;101493.03;;;32.17;40.48
51460;BME280;37534;39.772;2.718;2022-07-06T11:09:58;101510.81;;;32.43;41.03
51460;BME280;37534;39.772;2.718;2022-07-06T11:12:25;101537.91;;;32.64;39.30
51460;BME280;37534;39.772;2.718;2022-07-06T11:14:52;101564.66;;;32.89;39.15
51460;BME280;37534;39.772;2.718;2022-07-06T11:17:18;101585.38;;;32.87;38.86
51460;BME280;37534;39.772;2.718;2022-07-06T11:20:08;101596.75;;;33.13;40.44
51460;BME280;37534;39.772;2.718;2022-07-06T11:22:36;101596.34;;;32.92;38.66
51460;BME280;37534;39.772;2.718;2022-07-06T11:25:03;101606.06;;;33.09;37.69
51460;BME280;37534;39.772;2.718;2022-07-06T11:27:29;101612.44;;;33.41;38.56
51460;BME280;37534;39.772;2.718;2022-07-06T11:29:55;101634.66;;;33.83;37.06
51460;BME280;37534;39.772;2.718;2022-07-06T11:32:25;101638.66;;;33.79;43.41
51460;BME280;37534;39.772;2.718;2022-07-06T11:34:51;101635.16;;;33.78;45.34
51460;BME280;37534;39.772;2.718;2022-07-06T11:37:17;101630.19;;;33.67;46.33
51460;BME280;37534;39.772;2.718;2022-07-06T11:39:47;101625.44;;;33.77;45.34
51460;BME280;37534;39.772;2.718;2022-07-06T11:42:15;101633.25;;;33.95;45.19
51460;BME280;37534;39.772;2.718;2022-07-06T11:44:43;101611.00;;;33.95;44.85
51460;BME280;37534;39.772;2.718;2022-07-06T11:47:10;101623.25;;;33.89;44.58
51460;BME280;37534;39.772;2.718;2022-07-06T11:49:37;101618.88;;;33.96;44.34
51460;BME280;37534;39.772;2.718;2022-07-06T11:52:10;101633.97;;;33.89;45.01
51460;BME280;37534;39.772;2.718;2022-07-06T11:54:37;101633.78;;;33.99;43.92
51460;BME280;37534;39.772;2.718;2022-07-06T11:57:03;101625.66;;;34.23;43.36
51460;BME280;37534;39.772;2.718;2022-07-06T11:59:31;101631.97;;;34.39;41.52
51460;BME280;37534;39.772;2.718;2022-07-06T12:02:04;101639.25;;;34.53;41.33
51460;BME280;37534;39.772;2.718;2022-07-06T12:04:31;101634.72;;;34.22;40.51
51460;BME280;37534;39.772;2.718;2022-07-06T12:07:05;101645.81;;;34.03;40.57
51460;BME280;37534;39.772;2.718;2022-07-06T12:09:36;101635.81;;;33.88;42.30
51460;BME280;37534;39.772;2.718;2022-07-06T12:12:02;101637.47;;;33.89;40.86
51460;BME280;37534;39.772;2.718;2022-07-06T12:14:30;101629.69;;;34.19;39.57
51460;BME280;37534;39.772;2.718;2022-07-06T12:16:56;101616.59;;;34.33;39.93
51460;BME280;37534;39.772;2.718;2022-07-06T12:19:27;101624.72;;;34.47;38.64
51460;BME280;37534;39.772;2.718;2022-07-06T12:21:53;101642.75;;;34.54;39.17
51460;BME280;37534;39.772;2.718;2022-07-06T12:24:26;101644.84;;;34.43;39.73
51460;BME280;37534;39.772;2.718;2022-07-06T12:26:54;101649.97;;;34.53;40.00
51460;BME280;37534;39.772;2.718;2022-07-06T12:29:21;101639.34;;;34.68;38.87
51460;BME280;37534;39.772;2.718;2022-07-06T12:34:25;101644.69;;;34.99;38.72
51460;BME280;37534;39.772;2.718;2022-07-06T12:36:56;101637.72;;;35.13;38.27
51460;BME280;37534;39.772;2.718;2022-07-06T12:39:31;101624.38;;;35.28;37.48
51460;BME280;37534;39.772;2.718;2022-07-06T12:42:04;101591.94;;;35.53;37.58
51460;BME280;37534;39.772;2.718;2022-07-06T12:44:32;101595.81;;;35.65;37.05
51460;BME280;37534;39.772;2.718;2022-07-06T12:47:08;101572.13;;;35.69;36.97
51460;BME280;37534;39.772;2.718;2022-07-06T12:49:36;101516.34;;;35.64;35.77
51460;BME280;37534;39.772;2.718;2022-07-06T12:54:34;101538.38;;;35.74;35.78
51460;BME280;37534;39.772;2.718;2022-07-06T12:57:12;101547.25;;;35.60;36.05